Time;durP1;ratioP1;P1;durP2;ratioP2;P2;SDS_P1;SDS_P2;PMS_P1;PMS_P2;Temp;Humidity;BMP_temperature;BMP_pressure;BME280_temperature;BME280_humidity;BME280_pressure;Samples;Min_cycle;Max_cycle;Signal;HPM_P1;HPM_P2
2022/02/19 00:00:12;;;;;;;23.88;7.38;;;6.80;99.90;;;;;;5090294;28;20028;-53
2022/02/19 00:02:39;;;;;;;19.00;7.38;;;6.70;99.90;;;;;;5087989;28;20032;-51
2022/02/19 00:05:05;;;;;;;19.83;6.80;;;6.70;99.90;;;;;;5069226;28;20537;-48
2022/02/19 00:07:31;;;;;;;17.00;7.25;;;6.70;99.90;;;;;;5069649;28;20085;-54
2022/02/19 00:09:57;;;;;;;14.45;5.53;;;6.60;99.90;;;;;;5051586;28;20028;-50
2022/02/19 00:12:23;;;;;;;19.42;6.32;;;6.60;99.90;;;;;;5069537;28;20025;-52
2022/02/19 00:14:49;;;;;;;13.93;6.28;;;6.50;99.90;;;;;;5068901;28;20024;-52
2022/02/19 00:17:14;;;;;;;17.00;5.63;;;6.50;99.90;;;;;;5069791;28;20029;-52
2022/02/19 00:19:40;;;;;;;19.35;6.68;;;6.50;99.90;;;;;;5069487;28;20028;-50
2022/02/19 00:22:06;;;;;;;13.35;6.22;;;6.40;99.90;;;;;;5068001;28;20661;-52
2022/02/19 00:24:32;;;;;;;17.48;6.43;;;6.40;99.90;;;;;;5051167;28;20488;-50
2022/02/19 00:26:57;;;;;;;26.60;7.05;;;6.40;99.90;;;;;;5069433;28;20088;-51
2022/02/19 00:29:23;;;;;;;18.08;6.65;;;6.40;99.90;;;;;;5087644;28;20503;-47
2022/02/19 00:31:50;;;;;;;20.02;7.10;;;6.40;99.90;;;;;;5069284;28;20024;-53
2022/02/19 00:34:15;;;;;;;18.30;5.70;;;6.30;99.90;;;;;;5067810;28;20028;-52
2022/02/19 00:36:41;;;;;;;17.10;5.80;;;6.30;99.90;;;;;;5070905;28;20020;-50
2022/02/19 00:39:07;;;;;;;16.73;6.20;;;6.30;99.90;;;;;;5092148;23;20048;-53
2022/02/19 00:41:33;;;;;;;12.70;5.25;;;;;;;;;;5071995;28;20021;-52
2022/02/19 00:43:59;;;;;;;16.23;6.15;;;;;;;;;;5072500;28;20441;-49
2022/02/19 00:46:25;;;;;;;15.05;5.90;;;;;;;;;;5071458;28;20055;-50
2022/02/19 00:48:51;;;;;;;16.38;6.32;;;;;;;;;;5072355;28;20028;-50
2022/02/19 00:51:18;;;;;;;14.00;5.28;;;6.30;99.90;;;;;;5072798;28;20045;-49
2022/02/19 00:53:44;;;;;;;19.80;6.20;;;6.30;99.90;;;;;;5072426;28;20029;-51
2022/02/19 00:56:09;;;;;;;15.93;6.03;;;6.20;99.90;;;;;;5071908;28;20030;-54
2022/02/19 00:58:38;;;;;;;26.63;6.60;;;6.20;99.90;;;;;;5072531;28;20498;-52
2022/02/19 01:01:04;;;;;;;17.20;7.00;;;6.20;99.90;;;;;;5071402;28;20040;-55
2022/02/19 01:03:31;;;;;;;17.90;6.63;;;6.20;99.90;;;;;;5072289;28;20123;-52
2022/02/19 01:05:57;;;;;;;15.55;6.97;;;6.10;99.90;;;;;;5071760;28;20033;-50
2022/02/19 01:08:23;;;;;;;19.83;7.00;;;6.10;99.90;;;;;;5072106;28;20020;-58
2022/02/19 01:10:48;;;;;;;16.55;6.97;;;6.10;99.90;;;;;;5072426;28;20032;-50
2022/02/19 01:13:15;;;;;;;15.15;6.07;;;;;;;;;;5072641;28;20499;-51
2022/02/19 01:15:42;;;;;;;19.75;6.43;;;6.10;99.90;;;;;;5068668;28;20397;-56
2022/02/19 01:18:08;;;;;;;16.05;5.90;;;6.10;99.90;;;;;;5070968;28;20115;-49
2022/02/19 01:20:34;;;;;;;15.80;5.85;;;6.10;99.90;;;;;;5072667;28;20027;-56
2022/02/19 01:22:59;;;;;;;21.70;7.32;;;6.10;99.90;;;;;;5072525;28;20465;-50
2022/02/19 01:25:25;;;;;;;16.02;6.28;;;6.00;99.90;;;;;;5071523;28;20020;-51
2022/02/19 01:27:51;;;;;;;16.42;6.20;;;6.00;99.90;;;;;;5072333;28;20030;-53
2022/02/19 01:30:17;;;;;;;19.75;7.03;;;6.00;99.90;;;;;;5072269;28;20108;-55
2022/02/19 01:32:42;;;;;;;16.75;5.80;;;6.00;99.90;;;;;;5072606;28;20048;-53
2022/02/19 01:35:08;;;;;;;19.73;7.00;;;6.00;99.90;;;;;;5071541;28;20503;-54
2022/02/19 01:37:34;;;;;;;44.13;6.38;;;6.00;99.90;;;;;;5071844;28;20121;-52
2022/02/19 01:39:59;;;;;;;19.45;6.43;;;6.00;99.90;;;;;;5072299;28;20021;-53
2022/02/19 01:42:27;;;;;;;14.95;6.10;;;6.00;99.90;;;;;;5072110;28;20024;-53
2022/02/19 01:44:53;;;;;;;16.80;7.22;;;6.00;99.90;;;;;;5071608;28;20020;-57
2022/02/19 01:47:19;;;;;;;15.57;5.68;;;6.00;99.90;;;;;;5072316;28;20035;-52
2022/02/19 01:49:45;;;;;;;17.13;6.68;;;6.00;99.90;;;;;;5072051;28;20442;-55
2022/02/19 01:52:17;;;;;;;18.50;5.68;;;6.00;99.90;;;;;;5070802;28;20053;-52
2022/02/19 01:54:43;;;;;;;12.85;5.30;;;6.00;99.90;;;;;;5071226;28;20107;-52
2022/02/19 01:57:09;;;;;;;12.35;5.70;;;6.00;99.90;;;;;;5071718;28;20024;-55
2022/02/19 01:59:36;;;;;;;15.68;6.13;;;6.00;99.90;;;;;;5076401;28;20024;-56
2022/02/19 02:02:02;;;;;;;16.83;5.90;;;6.00;99.90;;;;;;5075099;28;20024;-53
2022/02/19 02:04:28;;;;;;;11.68;5.45;;;6.00;99.90;;;;;;5075730;28;20032;-53
2022/02/19 02:06:54;;;;;;;15.90;5.90;;;6.00;99.90;;;;;;5076487;28;20445;-56
2022/02/19 02:09:20;;;;;;;20.08;5.40;;;6.00;99.90;;;;;;5076325;28;20029;-52
2022/02/19 02:11:46;;;;;;;14.02;5.70;;;6.00;99.90;;;;;;5076360;28;20051;-52
2022/02/19 02:14:13;;;;;;;14.70;5.35;;;6.00;99.90;;;;;;5075309;28;20445;-52
2022/02/19 02:16:40;;;;;;;28.50;6.88;;;6.00;99.90;;;;;;5075920;28;20108;-54
2022/02/19 02:19:08;;;;;;;17.65;6.15;;;6.00;99.90;;;;;;5074557;28;20082;-57
2022/02/19 02:21:34;;;;;;;19.25;6.57;;;6.00;99.90;;;;;;5075768;28;20397;-52
2022/02/19 02:24:00;;;;;;;21.00;6.38;;;6.00;99.90;;;;;;5075243;28;20033;-50
2022/02/19 02:26:26;;;;;;;14.15;6.05;;;6.00;99.90;;;;;;5075704;28;20051;-52
2022/02/19 02:28:52;;;;;;;20.92;6.07;;;5.90;99.90;;;;;;5074443;28;20028;-50
2022/02/19 02:31:18;;;;;;;17.17;5.85;;;;;;;;;;5075318;28;20028;-56
2022/02/19 02:33:44;;;;;;;12.88;5.53;;;;;;;;;;5074144;28;20044;-51
2022/02/19 02:36:10;;;;;;;16.70;5.78;;;;;;;;;;5073419;28;20083;-53
2022/02/19 02:38:35;;;;;;;14.95;5.75;;;5.90;99.90;;;;;;5073899;28;20029;-54
2022/02/19 02:41:01;;;;;;;16.90;5.50;;;5.90;99.90;;;;;;5075607;28;20073;-53
2022/02/19 02:43:27;;;;;;;14.95;6.47;;;;;;;;;;5075455;28;20032;-51
2022/02/19 02:45:53;;;;;;;23.02;7.47;;;5.90;99.90;;;;;;5074724;28;20099;-54
2022/02/19 02:48:19;;;;;;;15.07;5.45;;;5.80;99.90;;;;;;5075352;28;20510;-52
2022/02/19 02:50:44;;;;;;;22.25;6.80;;;5.80;99.90;;;;;;5075651;28;20041;-52
2022/02/19 02:53:10;;;;;;;13.40;5.80;;;5.80;99.90;;;;;;5075146;28;20036;-53
2022/02/19 02:55:37;;;;;;;16.23;5.60;;;5.80;99.90;;;;;;5074420;28;20028;-52
2022/02/19 02:58:02;;;;;;;12.80;5.63;;;5.80;99.90;;;;;;5071891;28;20020;-53
2022/02/19 03:00:28;;;;;;;17.23;5.90;;;5.80;99.90;;;;;;5075364;28;20138;-55
2022/02/19 03:02:54;;;;;;;17.83;5.70;;;5.80;99.90;;;;;;5073992;28;20032;-56
2022/02/19 03:05:21;;;;;;;14.32;5.40;;;5.70;99.90;;;;;;5074415;28;20480;-51
2022/02/19 03:07:47;;;;;;;14.45;5.72;;;5.60;99.90;;;;;;5075493;28;20036;-55
2022/02/19 03:10:16;;;;;;;18.02;5.35;;;5.60;99.90;;;;;;5074790;28;20446;-54
2022/02/19 03:12:45;;;;;;;20.98;6.38;;;5.60;99.90;;;;;;5075024;28;20021;-54
2022/02/19 03:15:15;;;;;;;16.90;5.78;;;5.70;99.90;;;;;;5074089;28;20024;-52
2022/02/19 03:17:40;;;;;;;17.92;5.80;;;5.70;99.90;;;;;;5074615;28;20024;-57
2022/02/19 03:20:08;;;;;;;16.58;5.90;;;5.70;99.90;;;;;;5074756;28;20025;-53
2022/02/19 03:22:35;;;;;;;20.02;6.00;;;5.70;99.90;;;;;;5074839;28;20442;-53
2022/02/19 03:25:01;;;;;;;24.80;6.30;;;5.70;99.90;;;;;;5072327;28;20025;-55
2022/02/19 03:27:28;;;;;;;17.48;5.70;;;5.60;99.90;;;;;;5074327;28;20091;-52
2022/02/19 03:29:53;;;;;;;18.23;5.88;;;5.60;99.90;;;;;;5074547;28;20029;-53
2022/02/19 03:32:19;;;;;;;13.93;5.60;;;5.60;99.90;;;;;;5074382;28;20028;-51
2022/02/19 03:34:44;;;;;;;16.77;6.63;;;5.50;99.90;;;;;;5073563;28;20036;-49
2022/02/19 03:37:10;;;;;;;19.17;7.57;;;5.50;99.90;;;;;;5073189;28;20024;-55
2022/02/19 03:39:36;;;;;;;16.10;5.82;;;5.50;99.90;;;;;;5074188;28;20033;-51
2022/02/19 03:42:02;;;;;;;18.50;5.88;;;5.50;99.90;;;;;;5074090;28;20027;-56
2022/02/19 03:44:28;;;;;;;16.02;6.05;;;5.50;99.90;;;;;;5072069;28;20055;-55
2022/02/19 03:46:54;;;;;;;15.32;5.57;;;;;;;;;;5074043;28;20449;-55
2022/02/19 03:49:19;;;;;;;14.40;5.78;;;5.50;99.90;;;;;;5072666;28;20123;-53
2022/02/19 03:51:45;;;;;;;21.70;6.45;;;5.50;99.90;;;;;;5072887;28;20021;-51
2022/02/19 03:54:11;;;;;;;16.30;5.40;;;5.50;99.90;;;;;;5073282;28;20028;-53
2022/02/19 03:56:37;;;;;;;17.85;5.68;;;5.50;99.90;;;;;;5073943;28;20016;-52
2022/02/19 03:59:03;;;;;;;13.60;5.22;;;5.50;99.90;;;;;;5072389;28;20112;-54
2022/02/19 04:01:28;;;;;;;18.30;6.30;;;5.50;99.90;;;;;;5073785;28;20056;-54
2022/02/19 04:03:54;;;;;;;14.07;5.05;;;5.60;99.90;;;;;;5073072;28;20124;-52
2022/02/19 04:06:19;;;;;;;15.27;5.70;;;5.60;99.90;;;;;;5073541;28;20046;-53
2022/02/19 04:08:45;;;;;;;15.40;5.70;;;5.60;99.90;;;;;;5073661;28;20033;-53
2022/02/19 04:11:12;;;;;;;13.80;5.80;;;5.60;99.90;;;;;;5073784;28;20396;-53
2022/02/19 04:13:39;;;;;;;12.70;5.93;;;5.60;99.90;;;;;;5073730;28;20109;-54
2022/02/19 04:16:04;;;;;;;22.10;6.57;;;5.60;99.90;;;;;;5072813;28;20052;-53
2022/02/19 04:18:30;;;;;;;21.10;7.80;;;5.60;99.90;;;;;;5073954;28;20052;-55
2022/02/19 04:20:55;;;;;;;18.45;6.82;;;5.60;99.90;;;;;;5073820;28;20027;-57
2022/02/19 04:23:21;;;;;;;16.95;6.35;;;5.60;99.90;;;;;;5072357;28;20032;-54
2022/02/19 04:25:47;;;;;;;15.80;6.30;;;5.50;99.90;;;;;;5072809;28;20115;-53
2022/02/19 04:28:12;;;;;;;17.55;6.68;;;5.60;99.90;;;;;;5073207;28;20030;-55
2022/02/19 04:30:38;;;;;;;17.70;6.03;;;5.60;99.90;;;;;;5073339;28;20365;-57
2022/02/19 04:33:04;;;;;;;14.55;5.85;;;5.60;99.90;;;;;;5073450;28;20082;-53
2022/02/19 04:35:31;;;;;;;17.02;6.32;;;5.60;99.90;;;;;;5072808;28;20017;-55
2022/02/19 04:37:57;;;;;;;17.50;6.47;;;5.60;99.90;;;;;;5073119;28;20503;-53
2022/02/19 04:40:24;;;;;;;15.45;6.03;;;5.60;99.90;;;;;;5073152;28;20024;-51
2022/02/19 04:42:49;;;;;;;18.10;6.20;;;5.60;99.90;;;;;;5071938;28;20031;-55
2022/02/19 04:45:15;;;;;;;14.55;6.13;;;5.60;99.90;;;;;;5072276;28;20028;-56
2022/02/19 04:47:42;;;;;;;16.90;5.30;;;5.60;99.90;;;;;;5072874;28;20455;-52
2022/02/19 04:50:09;;;;;;;15.70;5.65;;;5.50;99.90;;;;;;5072937;28;20035;-53
2022/02/19 04:52:35;;;;;;;15.68;5.68;;;5.50;99.90;;;;;;5072776;28;20552;-54
2022/02/19 04:55:01;;;;;;;14.18;5.43;;;;;;;;;;5072231;28;20154;-55
2022/02/19 04:57:27;;;;;;;14.45;5.45;;;;;;;;;;5071441;28;20608;-50
2022/02/19 04:59:53;;;;;;;16.83;6.00;;;;;;;;;;5072749;28;20021;-53
2022/02/19 05:02:19;;;;;;;13.60;5.40;;;;;;;;;;5072957;28;20039;-55
2022/02/19 05:04:45;;;;;;;13.85;5.47;;;;;;;;;;5072126;28;20028;-52
2022/02/19 05:07:11;;;;;;;16.48;6.60;;;;;;;;;;5072864;28;20016;-52
2022/02/19 05:09:37;;;;;;;14.35;5.57;;;;;;;;;;5072624;28;20033;-56
2022/02/19 05:12:04;;;;;;;17.23;6.85;;;;;;;;;;5072566;28;20055;-54
2022/02/19 05:14:30;;;;;;;14.35;5.78;;;;;;;;;;5071627;28;20123;-51
2022/02/19 05:16:56;;;;;;;13.65;6.05;;;;;;;;;;5072374;28;20031;-55
2022/02/19 05:19:22;;;;;;;16.38;6.20;;;;;;;;;;5072323;28;20577;-55
2022/02/19 05:21:48;;;;;;;18.52;6.45;;;;;;;;;;5072556;28;20070;-57
2022/02/19 05:24:14;;;;;;;18.38;5.97;;;;;;;;;;5071724;28;20027;-51
2022/02/19 05:26:40;;;;;;;13.52;5.82;;;;;;;;;;5072575;28;20457;-50
2022/02/19 05:29:06;;;;;;;12.55;5.63;;;;;;;;;;5071083;28;20039;-53
2022/02/19 05:31:32;;;;;;;23.30;6.28;;;;;;;;;;5072231;28;20358;-50
2022/02/19 05:33:58;;;;;;;16.15;7.28;;;;;;;;;;5071497;28;20024;-50
2022/02/19 05:36:24;;;;;;;15.02;5.97;;;;;;;;;;5071203;28;20043;-52
2022/02/19 05:38:50;;;;;;;16.30;6.03;;;;;;;;;;5072107;28;20033;-53
2022/02/19 05:41:16;;;;;;;21.65;6.30;;;;;;;;;;5072159;28;20052;-52
2022/02/19 05:43:42;;;;;;;19.92;5.88;;;;;;;;;;5071987;28;20036;-55
2022/02/19 05:46:08;;;;;;;16.50;5.95;;;;;;;;;;5072144;28;20021;-56
2022/02/19 05:48:34;;;;;;;16.83;6.88;;;;;;;;;;5072221;28;20063;-55
2022/02/19 05:51:00;;;;;;;18.30;7.05;;;;;;;;;;5072036;28;20056;-53
2022/02/19 05:53:26;;;;;;;17.08;5.70;;;;;;;;;;5072155;28;20039;-51
2022/02/19 05:55:53;;;;;;;16.95;6.32;;;;;;;;;;5071500;28;20017;-56
2022/02/19 05:58:19;;;;;;;16.92;6.50;;;;;;;;;;5072058;28;20461;-52
2022/02/19 06:00:45;;;;;;;24.15;6.35;;;;;;;;;;5072002;28;20459;-55
2022/02/19 06:03:11;;;;;;;14.38;5.80;;;;;;;;;;5072184;28;20052;-53
2022/02/19 06:05:37;;;;;;;13.93;5.50;;;;;;;;;;5071138;28;20100;-52
2022/02/19 06:08:03;;;;;;;19.40;7.72;;;;;;;;;;5071866;28;20067;-51
2022/02/19 06:10:29;;;;;;;16.48;6.05;;;;;;;;;;5071811;28;20078;-56
2022/02/19 06:12:55;;;;;;;21.33;7.75;;;;;;;;;;5071873;28;20035;-55
2022/02/19 06:15:21;;;;;;;20.23;7.80;;;;;;;;;;5071089;28;20376;-57
2022/02/19 06:17:47;;;;;;;18.70;6.40;;;;;;;;;;5071769;28;20028;-55
2022/02/19 06:20:13;;;;;;;20.65;6.57;;;;;;;;;;5070616;28;20013;-54
2022/02/19 06:22:39;;;;;;;18.58;6.50;;;5.50;99.90;;;;;;5070675;28;20025;-56
2022/02/19 06:25:05;;;;;;;18.20;6.57;;;5.00;99.90;;;;;;5071154;28;20386;-56
2022/02/19 06:27:31;;;;;;;22.52;6.93;;;5.10;99.90;;;;;;5071781;28;20069;-55
2022/02/19 06:29:57;;;;;;;20.20;6.72;;;5.10;99.90;;;;;;5071733;28;20035;-52
2022/02/19 06:32:22;;;;;;;22.92;7.43;;;5.00;99.90;;;;;;5071794;28;20025;-51
2022/02/19 06:34:48;;;;;;;17.65;6.63;;;5.00;99.90;;;;;;5069700;28;20079;-55
2022/02/19 06:37:14;;;;;;;14.52;5.93;;;5.00;99.90;;;;;;5071232;28;20381;-57
2022/02/19 06:39:40;;;;;;;21.10;6.93;;;4.90;99.90;;;;;;5071509;28;20051;-55
2022/02/19 06:42:06;;;;;;;22.27;7.75;;;4.80;99.90;;;;;;5071674;28;20494;-55
2022/02/19 06:44:31;;;;;;;18.27;6.97;;;4.70;99.90;;;;;;5070698;28;20442;-56
2022/02/19 06:46:57;;;;;;;17.38;7.30;;;4.60;99.90;;;;;;5074055;28;20472;-54
2022/02/19 06:49:22;;;;;;;21.83;7.20;;;4.50;99.90;;;;;;5075787;28;20047;-54
2022/02/19 06:51:48;;;;;;;20.67;7.13;;;;;;;;;;5075348;28;20017;-53
2022/02/19 06:54:14;;;;;;;21.80;6.53;;;;;;;;;;5074522;28;20024;-53
2022/02/19 06:56:40;;;;;;;14.70;6.65;;;;;;;;;;5075320;28;20056;-56
2022/02/19 06:59:06;;;;;;;20.60;7.20;;;;;;;;;;5073915;28;20031;-54
2022/02/19 07:01:33;;;;;;;18.23;6.65;;;;;;;;;;5075189;28;20016;-52
2022/02/19 07:03:59;;;;;;;17.73;7.15;;;;;;;;;;5074671;28;20042;-56
2022/02/19 07:06:26;;;;;;;27.88;7.60;;;;;;;;;;5073780;28;20025;-54
2022/02/19 07:08:53;;;;;;;17.52;7.10;;;;;;;;;;5075288;28;20654;-51
2022/02/19 07:11:18;;;;;;;19.63;6.68;;;;;;;;;;5074978;28;20036;-53
2022/02/19 07:13:44;;;;;;;13.27;6.22;;;;;;;;;;5073532;28;20032;-49
2022/02/19 07:16:11;;;;;;;15.48;6.22;;;;;;;;;;5074713;28;20468;-53
2022/02/19 07:18:37;;;;;;;14.27;6.05;;;;;;;;;;5075145;28;20021;-51
2022/02/19 07:21:03;;;;;;;16.45;7.43;;;;;;;;;;5075037;28;20024;-49
2022/02/19 07:23:29;;;;;;;16.17;5.82;;;;;;;;;;5074916;28;20096;-54
2022/02/19 07:25:55;;;;;;;20.20;7.47;;;;;;;;;;5062548;28;20084;-54
2022/02/19 07:28:21;;;;;;;20.00;6.80;;;;;;;;;;5069688;28;20031;-53
2022/02/19 07:30:47;;;;;;;16.20;6.15;;;;;;;;;;5073341;28;20494;-56
2022/02/19 07:33:13;;;;;;;19.92;8.02;;;;;;;;;;5072712;28;20028;-51
2022/02/19 07:35:39;;;;;;;16.25;6.68;;;;;;;;;;5052833;28;20017;-50
2022/02/19 07:38:05;;;;;;;16.40;6.70;;;;;;;;;;5054289;28;20511;-51
2022/02/19 07:40:32;;;;;;;17.60;7.22;;;;;;;;;;5052714;28;20031;-54
2022/02/19 07:42:58;;;;;;;14.10;6.45;;;;;;;;;;5064615;28;20032;-50
2022/02/19 07:45:24;;;;;;;16.63;7.10;;;;;;;;;;5073803;28;20035;-53
2022/02/19 07:47:50;;;;;;;14.85;6.45;;;;;;;;;;5072849;28;20028;-51
2022/02/19 07:58:33;;;;;;;18.98;7.20;;;;;;;;;;5074704;28;20036;-57
2022/02/19 08:01:00;;;;;;;16.77;7.40;;;;;;;;;;5055424;28;20021;-58
2022/02/19 08:03:27;;;;;;;14.00;7.55;;;;;;;;;;5053951;28;20029;-56
2022/02/19 08:05:53;;;;;;;16.17;8.13;;;;;;;;;;5053548;28;20071;-57
2022/02/19 08:08:20;;;;;;;16.27;7.07;;;;;;;;;;5053694;28;20021;-56
2022/02/19 08:10:46;;;;;;;16.17;8.15;;;;;;;;;;5053302;28;20036;-56
2022/02/19 08:13:13;;;;;;;16.55;9.90;;;;;;;;;;5053877;28;20066;-57
2022/02/19 08:15:39;;;;;;;24.73;10.73;;;;;;;;;;5053152;28;20021;-56
2022/02/19 08:18:07;;;;;;;20.05;10.30;;;;;;;;;;5052202;28;20108;-57
2022/02/19 08:20:35;;;;;;;20.20;10.57;;;;;;;;;;5052285;28;20071;-57
2022/02/19 08:23:01;;;;;;;22.02;10.10;;;;;;;;;;5052324;28;20507;-55
2022/02/19 08:25:27;;;;;;;20.30;10.20;;;;;;;;;;5052455;28;20071;-58
2022/02/19 08:27:53;;;;;;;17.70;9.35;;;;;;;;;;5072816;28;20035;-57
2022/02/19 08:30:20;;;;;;;15.98;9.13;;;;;;;;;;5073017;28;20021;-56
2022/02/19 08:32:46;;;;;;;17.38;9.38;;;;;;;;;;5073137;28;20077;-56
2022/02/19 08:35:12;;;;;;;16.20;9.40;;;;;;;;;;5072522;28;20510;-58
2022/02/19 08:37:38;;;;;;;23.00;8.80;;;;;;;;;;5073313;28;20029;-54
2022/02/19 08:40:06;;;;;;;18.10;8.35;;;;;;;;;;5072585;28;20035;-57
2022/02/19 08:42:32;;;;;;;19.77;9.05;;;;;;;;;;5071841;28;20028;-54
2022/02/19 08:44:58;;;;;;;22.30;8.48;;;;;;;;;;5070926;28;20036;-56
2022/02/19 08:47:25;;;;;;;20.17;9.05;;;;;;;;;;5071583;28;20024;-56
2022/02/19 08:49:51;;;;;;;23.48;9.63;;;;;;;;;;5071484;28;20024;-52
2022/02/19 08:52:17;;;;;;;19.30;8.80;;;;;;;;;;5071419;28;20084;-54
2022/02/19 08:54:43;;;;;;;23.55;8.20;;;4.40;99.90;;;;;;5071254;28;20108;-59
2022/02/19 08:57:08;;;;;;;19.13;8.60;;;5.00;99.90;;;;;;5072635;28;20029;-57
2022/02/19 08:59:34;;;;;;;16.48;8.07;;;5.00;99.90;;;;;;5062790;28;20025;-59
2022/02/19 09:02:00;;;;;;;22.80;9.32;;;5.00;99.90;;;;;;5051758;28;20491;-60
2022/02/19 09:04:25;;;;;;;19.50;8.02;;;5.00;99.90;;;;;;5071283;28;20028;-58
2022/02/19 09:06:51;;;;;;;20.33;8.32;;;5.10;99.90;;;;;;5071991;28;20473;-55
2022/02/19 09:09:16;;;;;;;17.38;8.07;;;5.00;99.90;;;;;;5072854;28;20040;-57
2022/02/19 09:11:43;;;;;;;16.13;7.43;;;5.20;99.90;;;;;;5068930;28;20033;-56
2022/02/19 09:14:08;;;;;;;20.00;8.20;;;5.20;99.90;;;;;;5056331;28;20044;-53
2022/02/19 09:16:36;;;;;;;19.05;7.78;;;5.30;99.90;;;;;;5051196;28;20025;-57
2022/02/19 09:19:04;;;;;;;22.38;7.93;;;5.20;99.90;;;;;;5052117;28;20025;-56
2022/02/19 09:21:30;;;;;;;17.48;7.68;;;5.20;99.90;;;;;;5052624;28;20028;-58
2022/02/19 09:23:56;;;;;;;14.48;6.85;;;5.30;99.90;;;;;;5051608;28;20032;-56
2022/02/19 09:26:21;;;;;;;16.40;7.60;;;5.50;99.90;;;;;;5051204;28;20029;-53
2022/02/19 09:28:51;;;;;;;19.38;8.10;;;5.40;99.90;;;;;;5067750;28;20336;-57
2022/02/19 09:31:19;;;;;;;15.30;6.60;;;5.40;99.90;;;;;;5070849;28;20083;-57
2022/02/19 09:33:46;;;;;;;14.25;6.63;;;5.50;99.90;;;;;;5071705;28;20411;-54
2022/02/19 09:36:12;;;;;;;21.02;7.28;;;5.60;99.90;;;;;;5071632;28;20112;-56
2022/02/19 09:38:38;;;;;;;14.57;6.97;;;;;;;;;;5070695;28;20064;-57
2022/02/19 09:41:07;;;;;;;18.40;7.32;;;;;;;;;;5072514;28;20021;-52
2022/02/19 09:43:34;;;;;;;21.38;6.68;;;;;;;;;;5072192;28;20032;-58
2022/02/19 09:46:02;;;;;;;18.30;6.95;;;;;;;;;;5071185;28;20035;-62
2022/02/19 09:48:28;;;;;;;16.92;6.25;;;;;;;;;;5071433;28;20111;-58
2022/02/19 09:50:56;;;;;;;13.70;5.50;;;;;;;;;;5071749;28;20063;-58
2022/02/19 09:53:22;;;;;;;18.88;5.55;;;;;;;;;;5070644;28;20032;-58
2022/02/19 09:55:48;;;;;;;14.55;5.55;;;;;;;;;;5068974;28;20142;-62
2022/02/19 09:58:14;;;;;;;18.55;6.45;;;;;;;;;;5051554;28;20057;-57
2022/02/19 10:00:45;;;;;;;16.67;5.68;;;;;;;;;;5050482;28;20488;-59
2022/02/19 10:03:18;;;;;;;16.83;6.63;;;;;;;;;;5050243;28;20025;-58
2022/02/19 10:05:45;;;;;;;18.70;7.32;;;;;;;;;;5050709;28;20162;-59
2022/02/19 10:08:11;;;;;;;18.10;6.22;;;;;;;;;;5050329;28;20120;-59
2022/02/19 10:10:38;;;;;;;19.33;6.43;;;;;;;;;;5051643;28;20476;-57
2022/02/19 10:13:04;;;;;;;17.27;7.53;;;;;;;;;;5051101;28;20036;-59
2022/02/19 10:15:39;;;;;;;44.25;7.35;;;;;;;;;;5051063;28;20040;-60
2022/02/19 10:18:22;;;;;;;20.50;7.35;;;;;;;;;;5052131;28;20026;-57
2022/02/19 10:20:49;;;;;;;20.77;6.63;;;;;;;;;;5062074;28;20025;-60
2022/02/19 10:23:15;;;;;;;18.30;5.80;;;;;;;;;;5065423;28;20029;-60
2022/02/19 10:25:41;;;;;;;18.05;6.28;;;;;;;;;;5065443;28;20435;-60
2022/02/19 10:28:10;;;;;;;19.45;6.60;;;;;;;;;;5061914;28;20033;-62
2022/02/19 10:30:36;;;;;;;17.02;5.90;;;5.80;99.90;;;;;;5069510;28;20032;-57
2022/02/19 10:33:06;;;;;;;15.77;6.43;;;6.70;99.90;;;;;;5056433;28;20041;-58
2022/02/19 10:35:37;;;;;;;17.65;6.30;;;6.50;99.90;;;;;;5053352;28;20465;-56
2022/02/19 10:38:14;;;;;;;13.05;5.35;;;6.50;99.90;;;;;;5061107;28;20024;-55
2022/02/19 10:40:46;;;;;;;16.60;5.87;;;6.30;99.90;;;;;;5075151;28;20427;-57
2022/02/19 10:43:17;;;;;;;17.98;5.75;;;6.50;99.90;;;;;;5072796;28;20032;-58
2022/02/19 10:45:57;;;;;;;18.58;5.93;;;6.50;99.90;;;;;;5074015;28;20432;-57
2022/02/19 10:48:25;;;;;;;15.95;6.20;;;6.60;99.90;;;;;;5074772;28;20040;-56
2022/02/19 10:50:51;;;;;;;14.95;5.85;;;6.70;99.90;;;;;;5074602;28;20032;-59
2022/02/19 10:53:24;;;;;;;17.50;6.28;;;6.90;99.90;;;;;;5073265;28;20063;-58
2022/02/19 10:55:50;;;;;;;19.60;7.65;;;6.80;99.90;;;;;;5074031;28;20078;-59
2022/02/19 10:58:16;;;;;;;23.85;7.15;;;7.10;99.90;;;;;;5075081;28;20021;-59
2022/02/19 11:00:44;;;;;;;18.25;5.90;;;7.10;99.90;;;;;;5074908;28;20021;-60
2022/02/19 11:03:11;;;;;;;14.60;5.32;;;7.20;99.90;;;;;;5074978;28;20024;-58
2022/02/19 11:05:38;;;;;;;11.23;5.00;;;7.00;99.90;;;;;;5072613;28;20040;-58
2022/02/19 11:08:04;;;;;;;16.60;6.75;;;6.90;99.90;;;;;;5073108;28;20059;-59
2022/02/19 11:10:32;;;;;;;17.60;5.78;;;6.90;99.90;;;;;;5074677;28;20043;-57
2022/02/19 11:12:57;;;;;;;27.35;7.28;;;7.00;99.90;;;;;;5074590;28;20515;-55
2022/02/19 11:15:23;;;;;;;14.55;5.63;;;7.00;99.90;;;;;;5074009;28;20024;-60
2022/02/19 11:17:50;;;;;;;21.15;7.97;;;7.00;99.90;;;;;;5074631;28;20464;-54
2022/02/19 11:20:17;;;;;;;17.42;6.68;;;7.00;99.90;;;;;;5074939;28;20122;-57
2022/02/19 11:22:43;;;;;;;14.20;6.03;;;7.00;99.90;;;;;;5074888;28;20045;-54
2022/02/19 11:25:15;;;;;;;17.60;7.70;;;7.30;99.90;;;;;;5073846;28;20044;-54
2022/02/19 11:27:45;;;;;;;20.23;7.28;;;8.10;99.90;;;;;;5074216;28;20108;-56
2022/02/19 11:30:11;;;;;;;18.40;6.60;;;8.20;99.90;;;;;;5073832;28;20424;-59
2022/02/19 11:32:42;;;;;;;16.30;7.38;;;8.30;99.90;;;;;;5072944;28;20044;-55
2022/02/19 11:35:09;;;;;;;17.70;6.68;;;8.20;99.90;;;;;;5073523;28;20056;-56
2022/02/19 11:37:43;;;;;;;17.50;6.47;;;8.50;99.90;;;;;;5073888;28;20115;-57
2022/02/19 11:40:10;;;;;;;14.18;6.25;;;8.90;99.90;;;;;;5073148;28;20349;-55
2022/02/19 11:42:37;;;;;;;18.65;6.60;;;9.00;99.90;;;;;;5074232;28;20024;-57
2022/02/19 11:45:22;;;;;;;14.93;6.25;;;8.60;99.90;;;;;;5073179;28;20055;-59
2022/02/19 11:47:50;;;;;;;16.20;6.13;;;8.00;99.90;;;;;;5069918;28;20345;-57
2022/02/19 11:50:37;;;;;;;26.43;6.20;;;8.30;99.90;;;;;;5065279;28;20037;-55
2022/02/19 11:53:12;;;;;;;18.20;6.50;;;8.50;99.90;;;;;;5063377;28;20511;-61
2022/02/19 11:55:39;;;;;;;17.95;6.43;;;7.90;99.90;;;;;;5063460;28;20027;-57
2022/02/19 11:58:07;;;;;;;16.73;6.70;;;7.60;99.90;;;;;;5062410;28;20483;-57
2022/02/19 12:00:48;;;;;;;18.17;6.50;;;7.60;99.90;;;;;;5061812;28;20075;-59
2022/02/19 12:03:31;;;;;;;17.10;6.45;;;8.20;99.90;;;;;;5064117;28;20397;-56
2022/02/19 12:06:15;;;;;;;15.55;6.78;;;8.10;99.90;;;;;;5063270;28;20055;-58
2022/02/19 12:08:52;;;;;;;26.17;7.20;;;8.20;99.90;;;;;;5061188;28;20028;-59
2022/02/19 12:11:21;;;;;;;20.55;8.05;;;8.50;99.90;;;;;;5062604;28;20021;-59
2022/02/19 12:13:56;;;;;;;23.17;6.70;;;8.40;99.90;;;;;;5051873;28;20366;-58
2022/02/19 12:16:28;;;;;;;15.90;6.07;;;9.00;99.90;;;;;;4709571;28;10000324;-61
2022/02/19 12:18:56;;;;;;;15.32;6.30;;;9.40;99.90;;;;;;5052799;28;20108;-58
2022/02/19 12:21:31;;;;;;;18.83;8.73;;;8.70;99.90;;;;;;5069985;28;20024;-58
2022/02/19 12:24:19;;;;;;;12.98;5.90;;;8.80;99.90;;;;;;5059850;28;20105;-51
2022/02/19 12:29:22;;;;;;;17.40;7.65;;;9.10;99.90;;;;;;5052614;28;20021;-61
2022/02/19 12:32:04;;;;;;;12.43;5.72;;;9.60;99.40;;;;;;5058243;28;20161;-60
2022/02/19 12:34:35;;;;;;;17.63;6.72;;;9.60;98.80;;;;;;5073803;28;20056;-58
2022/02/19 12:37:02;;;;;;;15.88;6.22;;;9.80;98.50;;;;;;5073611;28;20484;-59
2022/02/19 12:39:28;;;;;;;13.27;6.05;;;8.70;98.70;;;;;;5077935;28;20036;-57
2022/02/19 12:41:58;;;;;;;15.68;6.35;;;8.40;99.40;;;;;;5074449;28;20676;-57
2022/02/19 12:44:25;;;;;;;16.55;6.45;;;8.60;99.90;;;;;;5076368;28;20044;-58
2022/02/19 12:46:52;;;;;;;15.43;6.30;;;9.20;99.40;;;;;;5077235;28;20039;-59
2022/02/19 12:49:19;;;;;;;15.80;6.40;;;9.70;98.70;;;;;;5076074;28;20028;-57
2022/02/19 12:51:56;;;;;;;14.75;7.05;;;9.70;98.50;;;;;;5093027;28;20438;-56
2022/02/19 12:54:39;;;;;;;17.73;7.28;;;10.00;98.20;;;;;;5092957;28;20434;-54
2022/02/19 12:57:13;;;;;;;14.88;6.65;;;10.10;97.20;;;;;;5093898;28;20031;-59
2022/02/19 12:59:44;;;;;;;18.25;7.10;;;10.10;96.90;;;;;;5093078;28;20090;-53
2022/02/19 13:02:11;;;;;;;14.80;6.13;;;9.70;97.10;;;;;;5093258;28;20031;-57
2022/02/19 13:04:42;;;;;;;18.67;6.72;;;8.80;98.30;;;;;;5092062;28;20020;-57
2022/02/19 13:07:09;;;;;;;17.20;6.40;;;8.40;99.40;;;;;;5092781;28;20032;-54
2022/02/19 13:09:36;;;;;;;17.08;7.22;;;8.80;99.20;;;;;;5091232;28;20060;-55
2022/02/19 13:12:03;;;;;;;14.57;6.65;;;10.00;98.40;;;;;;5092040;28;20077;-55
2022/02/19 13:14:30;;;;;;;21.67;6.80;;;10.10;97.60;;;;;;5090320;28;20097;-51
2022/02/19 13:17:00;;;;;;;17.20;6.85;;;9.10;98.10;;;;;;5056649;28;20382;-58
2022/02/19 13:19:29;;;;;;;18.20;6.30;;;8.70;98.90;;;;;;5051071;28;20033;-54
2022/02/19 13:22:11;;;;;;;16.25;6.10;;;8.90;99.10;;;;;;5051685;28;20028;-57
2022/02/19 13:24:39;;;;;;;13.80;7.18;;;8.90;98.60;;;;;;5067984;28;20025;-61
2022/02/19 13:27:09;;;;;;;15.70;6.30;;;9.20;97.30;;;;;;5071579;28;20028;-56
2022/02/19 13:29:35;;;;;;;13.45;6.20;;;9.70;97.10;;;;;;5071831;28;20516;-57